Novo Imperador — CULB-7 — position and weather

sailwx.info

Track history (hours):
 
Tides and Currents Weather Stations Pressure Air Temp Water Temp Dewpoint Dewpoint Depression Visibility Wind Speed Wind Dir Waves Ship Positions

Novo Imperador

Last reported at 2017-Nov-19 02:50 UTC. Time now 2017-Nov-21 15:43 UTC.
Position N 38°26' W 009°07'.

Length 18 m.

MMSI: 204267000.

Date/timePositionNaut miles runAvg speedWind from/ knotsBaromVisibWave heightAir tempDewpointWater temp
2017-Nov-19 02:50N 38°26' W 009°07'0 0.4
2017-Nov-19 02:30N 38°26' W 009°07'2 3.2
2017-Nov-19 02:00N 38°25' W 009°08'4 7.7
2017-Nov-19 01:30N 38°24' W 009°13'4 7.6
2017-Nov-19 01:00N 38°25' W 009°18'4 7.5
2017-Nov-19 00:27N 38°27' W 009°23'4 7.8
2017-Nov-19 00:00N 38°28' W 009°27'4 8.1
2017-Nov-18 23:30N 38°30' W 009°32'4 8.4
2017-Nov-18 22:59N 38°32' W 009°36'4 8.2
2017-Nov-18 22:30N 38°34' W 009°41'4 8.2
2017-Nov-18 22:00N 38°36' W 009°45'4 8.4
2017-Nov-18 21:30N 38°38' W 009°50'10 0.6
2017-Nov-18 04:21N 38°46' W 009°57'3 8.2
2017-Nov-18 04:00N 38°45' W 009°53'5 8.2
2017-Nov-18 03:25N 38°43' W 009°47'4 8.7
2017-Nov-18 03:00N 38°41' W 009°44'4 8.5
2017-Nov-18 02:30N 38°39' W 009°39'4 8.1
2017-Nov-18 02:00N 38°37' W 009°35'4 8.4
2017-Nov-18 01:31N 38°34' W 009°31'4 8.7
2017-Nov-18 01:00N 38°31' W 009°26'4 8.7
2017-Nov-18 00:30N 38°29' W 009°22'4 8.8
2017-Nov-18 00:00N 38°26' W 009°17'4 8.4
2017-Nov-17 23:30N 38°24' W 009°12'4 8.5
2017-Nov-17 23:00N 38°26' W 009°07'1 1.5
2017-Nov-17 22:30N 38°26' W 009°07'0 0.0
2017-Nov-17 10:32N 38°26' W 009°07'0 0.2
2017-Nov-17 10:30N 38°26' W 009°07'0 0.0
2017-Nov-17 10:01N 38°26' W 009°07'0 0.0
2017-Nov-17 06:40N 38°26' W 009°07'0 0.8
2017-Nov-17 06:30N 38°26' W 009°07'0 0.5
2017-Nov-17 06:00N 38°26' W 009°06'4 8.0
2017-Nov-17 05:30N 38°25' W 009°11'4 8.1
2017-Nov-17 05:00N 38°25' W 009°16'4 8.2
2017-Nov-17 04:30N 38°26' W 009°21'4 8.6
2017-Nov-17 04:00N 38°28' W 009°26'4 8.3
2017-Nov-17 03:30N 38°31' W 009°30'4 8.4
2017-Nov-17 03:00N 38°33' W 009°35'4 8.7
2017-Nov-17 02:30N 38°35' W 009°39'4 8.6
2017-Nov-17 02:00N 38°38' W 009°44'4 7.9
2017-Nov-17 01:30N 38°40' W 009°48'10 0.5
2017-Nov-16 06:09N 38°46' W 009°58'1 8.7
2017-Nov-16 06:00N 38°46' W 009°57'4 8.5
2017-Nov-16 05:30N 38°44' W 009°52'4 8.0
2017-Nov-16 05:00N 38°42' W 009°47'4 8.4
2017-Nov-16 04:31N 38°40' W 009°43'4 8.7
2017-Nov-16 04:01N 38°37' W 009°38'4 8.8
2017-Nov-16 03:30N 38°35' W 009°33'4 8.7
2017-Nov-16 03:00N 38°33' W 009°29'4 8.7
2017-Nov-16 02:30N 38°30' W 009°24'4 8.1
2017-Nov-16 02:00N 38°28' W 009°20'0 0.4
2017-Nov-16 01:30N 38°28' W 009°20'2 4.1
2017-Nov-16 01:00N 38°27' W 009°18'5 8.9
2017-Nov-16 00:29N 38°24' W 009°13'4 8.9
2017-Nov-16 00:00N 38°26' W 009°07'1 1.8
2017-Nov-15 23:30N 38°26' W 009°07'0 0.0
2017-Nov-15 16:20N 38°26' W 009°07'0 0.0
2017-Nov-15 11:46N 38°26' W 009°07'1 2.3
2017-Nov-15 11:30N 38°26' W 009°07'5 8.4
2017-Nov-15 10:57N 38°24' W 009°13'4 8.1
2017-Nov-15 10:30N 38°26' W 009°17'4 7.7
2017-Nov-15 09:59N 38°27' W 009°22'4 7.8
2017-Nov-15 09:30N 38°27' W 009°27'3 6.7
2017-Nov-15 09:00N 38°27' W 009°31'0 0.2
2017-Nov-15 08:30N 38°27' W 009°31'0 0.4
2017-Nov-15 08:00N 38°27' W 009°31'2 3.5
2017-Nov-15 07:30N 38°26' W 009°33'0 0.1
2017-Nov-15 05:42N 38°26' W 009°33'0 0.8
2017-Nov-15 05:25N 38°26' W 009°33'4 8.5
2017-Nov-15 05:00N 38°26' W 009°28'4 8.8
2017-Nov-15 04:30N 38°25' W 009°23'4 8.5
2017-Nov-15 04:01N 38°25' W 009°17'4 8.6
2017-Nov-15 03:30N 38°24' W 009°12'4 8.7
2017-Nov-15 03:00N 38°26' W 009°07'0 0.0
2017-Nov-14 09:54N 38°26' W 009°07'0 0.1
2017-Nov-14 09:31N 38°26' W 009°07'2 4.8
2017-Nov-14 09:01N 38°25' W 009°09'4 7.9
2017-Nov-14 08:29N 38°25' W 009°15'5 8.2
2017-Nov-14 07:57N 38°26' W 009°20'3 8.1
2017-Nov-14 07:31N 38°28' W 009°24'4 7.8
2017-Nov-14 07:00N 38°29' W 009°29'4 7.9
2017-Nov-14 06:31N 38°31' W 009°33'4 7.8
2017-Nov-14 05:58N 38°34' W 009°38'4 8.1
2017-Nov-14 05:29N 38°36' W 009°42'4 8.3
2017-Nov-14 05:00N 38°38' W 009°46'4 8.4
2017-Nov-14 04:30N 38°40' W 009°51'37 1.4
2017-Nov-13 01:47N 38°26' W 009°07'0 0.0
2017-Nov-11 10:49N 38°26' W 009°07'0 0.0
2017-Nov-11 06:13N 38°26' W 009°07'0 0.6
2017-Nov-11 06:01N 38°26' W 009°07'0 0.6
2017-Nov-11 05:31N 38°26' W 009°06'4 8.2
2017-Nov-11 05:00N 38°24' W 009°11'4 8.1
2017-Nov-11 04:31N 38°25' W 009°16'4 8.6
2017-Nov-11 04:01N 38°26' W 009°21'4 8.4
2017-Nov-11 03:30N 38°28' W 009°26'4 8.2
2017-Nov-11 03:00N 38°30' W 009°31'4 8.0
2017-Nov-11 02:30N 38°33' W 009°35'4 7.8
2017-Nov-11 02:00N 38°35' W 009°39'4 8.3
2017-Nov-11 01:30N 38°38' W 009°43'4 8.4
2017-Nov-11 01:00N 38°40' W 009°48'4 7.7
2017-Nov-11 00:31N 38°41' W 009°52'2 4.4
2017-Nov-10 23:59N 38°40' W 009°55'3 1.3
2017-Nov-10 21:54N 38°40' W 009°58'0 0.7
2017-Nov-10 21:21N 38°40' W 009°58'0 0.7
2017-Nov-10 21:00N 38°40' W 009°57'0 0.7
2017-Nov-10 20:30N 38°40' W 009°57'0 0.8
2017-Nov-10 19:54N 38°40' W 009°56'0 0.9
2017-Nov-10 19:30N 38°40' W 009°56'0 0.8
2017-Nov-10 19:00N 38°40' W 009°55'0 0.8
2017-Nov-10 18:30N 38°40' W 009°55'0 0.8
2017-Nov-10 18:00N 38°40' W 009°54'7 0.6
2017-Nov-10 06:02N 38°45' W 009°59'0 0.6
2017-Nov-10 05:58N 38°45' W 009°59'1 0.8
2017-Nov-10 04:56N 38°46' W 009°58'3 6.1
2017-Nov-10 04:31N 38°46' W 009°54'4 7.7
2017-Nov-10 04:00N 38°44' W 009°50'4 8.5
2017-Nov-10 03:30N 38°42' W 009°45'4 8.3
2017-Nov-10 03:00N 38°39' W 009°41'4 8.5
2017-Nov-10 02:30N 38°37' W 009°37'4 8.7
2017-Nov-10 02:00N 38°34' W 009°32'4 8.7
2017-Nov-10 01:30N 38°32' W 009°27'4 8.5
2017-Nov-10 01:01N 38°29' W 009°23'4 8.5
2017-Nov-10 00:30N 38°27' W 009°18'4 8.5
2017-Nov-10 00:00N 38°25' W 009°14'4 7.9
2017-Nov-09 23:29N 38°25' W 009°09'2 4.1
2017-Nov-09 23:00N 38°26' W 009°07'0 0.1
2017-Nov-09 22:30N 38°26' W 009°07'  
Track history (hours):
 
Tides and Currents Weather Stations Pressure Air Temp Water Temp Dewpoint Dewpoint Depression Visibility Wind Speed Wind Dir Waves Ship Positions

Novo Imperador

Last reported at 2017-Nov-19 02:50 UTC. Time now 2017-Nov-21 15:43 UTC.
Position N 38°26' W 009°07'.

Length 18 m.

MMSI: 204267000.

Date/timePositionNaut miles runAvg speedWind from/ knotsBaromVisibWave heightAir tempDewpointWater temp
2017-Nov-19 02:50N 38°26' W 009°07'0 0.4
2017-Nov-19 02:30N 38°26' W 009°07'2 3.2
2017-Nov-19 02:00N 38°25' W 009°08'4 7.7
2017-Nov-19 01:30N 38°24' W 009°13'4 7.6
2017-Nov-19 01:00N 38°25' W 009°18'4 7.5
2017-Nov-19 00:27N 38°27' W 009°23'4 7.8
2017-Nov-19 00:00N 38°28' W 009°27'4 8.1
2017-Nov-18 23:30N 38°30' W 009°32'4 8.4
2017-Nov-18 22:59N 38°32' W 009°36'4 8.2
2017-Nov-18 22:30N 38°34' W 009°41'4 8.2
2017-Nov-18 22:00N 38°36' W 009°45'4 8.4
2017-Nov-18 21:30N 38°38' W 009°50'10 0.6
2017-Nov-18 04:21N 38°46' W 009°57'3 8.2
2017-Nov-18 04:00N 38°45' W 009°53'5 8.2
2017-Nov-18 03:25N 38°43' W 009°47'4 8.7
2017-Nov-18 03:00N 38°41' W 009°44'4 8.5
2017-Nov-18 02:30N 38°39' W 009°39'4 8.1
2017-Nov-18 02:00N 38°37' W 009°35'4 8.4
2017-Nov-18 01:31N 38°34' W 009°31'4 8.7
2017-Nov-18 01:00N 38°31' W 009°26'4 8.7
2017-Nov-18 00:30N 38°29' W 009°22'4 8.8
2017-Nov-18 00:00N 38°26' W 009°17'4 8.4
2017-Nov-17 23:30N 38°24' W 009°12'4 8.5
2017-Nov-17 23:00N 38°26' W 009°07'1 1.5
2017-Nov-17 22:30N 38°26' W 009°07'0 0.0
2017-Nov-17 10:32N 38°26' W 009°07'0 0.2
2017-Nov-17 10:30N 38°26' W 009°07'0 0.0
2017-Nov-17 10:01N 38°26' W 009°07'0 0.0
2017-Nov-17 06:40N 38°26' W 009°07'0 0.8
2017-Nov-17 06:30N 38°26' W 009°07'0 0.5
2017-Nov-17 06:00N 38°26' W 009°06'4 8.0
2017-Nov-17 05:30N 38°25' W 009°11'4 8.1
2017-Nov-17 05:00N 38°25' W 009°16'4 8.2
2017-Nov-17 04:30N 38°26' W 009°21'4 8.6
2017-Nov-17 04:00N 38°28' W 009°26'4 8.3
2017-Nov-17 03:30N 38°31' W 009°30'4 8.4
2017-Nov-17 03:00N 38°33' W 009°35'4 8.7
2017-Nov-17 02:30N 38°35' W 009°39'4 8.6
2017-Nov-17 02:00N 38°38' W 009°44'4 7.9
2017-Nov-17 01:30N 38°40' W 009°48'10 0.5
2017-Nov-16 06:09N 38°46' W 009°58'1 8.7
2017-Nov-16 06:00N 38°46' W 009°57'4 8.5
2017-Nov-16 05:30N 38°44' W 009°52'4 8.0
2017-Nov-16 05:00N 38°42' W 009°47'4 8.4
2017-Nov-16 04:31N 38°40' W 009°43'4 8.7
2017-Nov-16 04:01N 38°37' W 009°38'4 8.8
2017-Nov-16 03:30N 38°35' W 009°33'4 8.7
2017-Nov-16 03:00N 38°33' W 009°29'4 8.7
2017-Nov-16 02:30N 38°30' W 009°24'4 8.1
2017-Nov-16 02:00N 38°28' W 009°20'0 0.4
2017-Nov-16 01:30N 38°28' W 009°20'2 4.1
2017-Nov-16 01:00N 38°27' W 009°18'5 8.9
2017-Nov-16 00:29N 38°24' W 009°13'4 8.9
2017-Nov-16 00:00N 38°26' W 009°07'1 1.8
2017-Nov-15 23:30N 38°26' W 009°07'0 0.0
2017-Nov-15 16:20N 38°26' W 009°07'0 0.0
2017-Nov-15 11:46N 38°26' W 009°07'1 2.3
2017-Nov-15 11:30N 38°26' W 009°07'5 8.4
2017-Nov-15 10:57N 38°24' W 009°13'4 8.1
2017-Nov-15 10:30N 38°26' W 009°17'4 7.7
2017-Nov-15 09:59N 38°27' W 009°22'4 7.8
2017-Nov-15 09:30N 38°27' W 009°27'3 6.7
2017-Nov-15 09:00N 38°27' W 009°31'0 0.2
2017-Nov-15 08:30N 38°27' W 009°31'0 0.4
2017-Nov-15 08:00N 38°27' W 009°31'2 3.5
2017-Nov-15 07:30N 38°26' W 009°33'0 0.1
2017-Nov-15 05:42N 38°26' W 009°33'0 0.8
2017-Nov-15 05:25N 38°26' W 009°33'4 8.5
2017-Nov-15 05:00N 38°26' W 009°28'4 8.8
2017-Nov-15 04:30N 38°25' W 009°23'4 8.5
2017-Nov-15 04:01N 38°25' W 009°17'4 8.6
2017-Nov-15 03:30N 38°24' W 009°12'4 8.7
2017-Nov-15 03:00N 38°26' W 009°07'0 0.0
2017-Nov-14 09:54N 38°26' W 009°07'0 0.1
2017-Nov-14 09:31N 38°26' W 009°07'2 4.8
2017-Nov-14 09:01N 38°25' W 009°09'4 7.9
2017-Nov-14 08:29N 38°25' W 009°15'5 8.2
2017-Nov-14 07:57N 38°26' W 009°20'3 8.1
2017-Nov-14 07:31N 38°28' W 009°24'4 7.8
2017-Nov-14 07:00N 38°29' W 009°29'4 7.9
2017-Nov-14 06:31N 38°31' W 009°33'4 7.8
2017-Nov-14 05:58N 38°34' W 009°38'4 8.1
2017-Nov-14 05:29N 38°36' W 009°42'4 8.3
2017-Nov-14 05:00N 38°38' W 009°46'4 8.4
2017-Nov-14 04:30N 38°40' W 009°51'37 1.4
2017-Nov-13 01:47N 38°26' W 009°07'0 0.0
2017-Nov-11 10:49N 38°26' W 009°07'0 0.0
2017-Nov-11 06:13N 38°26' W 009°07'0 0.6
2017-Nov-11 06:01N 38°26' W 009°07'0 0.6
2017-Nov-11 05:31N 38°26' W 009°06'4 8.2
2017-Nov-11 05:00N 38°24' W 009°11'4 8.1
2017-Nov-11 04:31N 38°25' W 009°16'4 8.6
2017-Nov-11 04:01N 38°26' W 009°21'4 8.4
2017-Nov-11 03:30N 38°28' W 009°26'4 8.2
2017-Nov-11 03:00N 38°30' W 009°31'4 8.0
2017-Nov-11 02:30N 38°33' W 009°35'4 7.8
2017-Nov-11 02:00N 38°35' W 009°39'4 8.3
2017-Nov-11 01:30N 38°38' W 009°43'4 8.4
2017-Nov-11 01:00N 38°40' W 009°48'4 7.7
2017-Nov-11 00:31N 38°41' W 009°52'2 4.4
2017-Nov-10 23:59N 38°40' W 009°55'3 1.3
2017-Nov-10 21:54N 38°40' W 009°58'0 0.7
2017-Nov-10 21:21N 38°40' W 009°58'0 0.7
2017-Nov-10 21:00N 38°40' W 009°57'0 0.7
2017-Nov-10 20:30N 38°40' W 009°57'0 0.8
2017-Nov-10 19:54N 38°40' W 009°56'0 0.9
2017-Nov-10 19:30N 38°40' W 009°56'0 0.8
2017-Nov-10 19:00N 38°40' W 009°55'0 0.8
2017-Nov-10 18:30N 38°40' W 009°55'0 0.8
2017-Nov-10 18:00N 38°40' W 009°54'7 0.6
2017-Nov-10 06:02N 38°45' W 009°59'0 0.6
2017-Nov-10 05:58N 38°45' W 009°59'1 0.8
2017-Nov-10 04:56N 38°46' W 009°58'3 6.1
2017-Nov-10 04:31N 38°46' W 009°54'4 7.7
2017-Nov-10 04:00N 38°44' W 009°50'4 8.5
2017-Nov-10 03:30N 38°42' W 009°45'4 8.3
2017-Nov-10 03:00N 38°39' W 009°41'4 8.5
2017-Nov-10 02:30N 38°37' W 009°37'4 8.7
2017-Nov-10 02:00N 38°34' W 009°32'4 8.7
2017-Nov-10 01:30N 38°32' W 009°27'4 8.5
2017-Nov-10 01:01N 38°29' W 009°23'4 8.5
2017-Nov-10 00:30N 38°27' W 009°18'4 8.5
2017-Nov-10 00:00N 38°25' W 009°14'4 7.9
2017-Nov-09 23:29N 38°25' W 009°09'2 4.1
2017-Nov-09 23:00N 38°26' W 009°07'0 0.1
2017-Nov-09 22:30N 38°26' W 009°07'  

Dump ship's entire track history